createdAt,value
2022-08-01T00:00:10.426Z,2.65
2022-08-01T00:02:39.746Z,2.60
2022-08-01T00:05:11.629Z,3.10
2022-08-01T00:07:39.794Z,3.03
2022-08-01T00:10:10.915Z,2.80
2022-08-01T00:12:39.174Z,2.60
2022-08-01T00:15:08.951Z,2.55
2022-08-01T00:17:37.581Z,3.20
2022-08-01T00:20:08.448Z,2.60
2022-08-01T00:22:37.836Z,2.65
2022-08-01T00:25:07.138Z,2.83
2022-08-01T00:27:37.619Z,2.83
2022-08-01T00:30:13.686Z,2.90
2022-08-01T00:32:43.303Z,2.80
2022-08-01T00:35:11.323Z,3.28
2022-08-01T00:37:40.783Z,3.00
2022-08-01T00:40:09.944Z,3.40
2022-08-01T00:42:42.991Z,3.80
2022-08-01T00:45:12.213Z,2.92
2022-08-01T00:47:40.810Z,3.15
2022-08-01T00:50:10.169Z,3.72
2022-08-01T00:52:41.294Z,3.10
2022-08-01T00:55:14.909Z,2.55
2022-08-01T00:58:02.859Z,2.20
2022-08-01T01:00:32.872Z,2.50
2022-08-01T01:03:03.085Z,2.03
2022-08-01T01:05:37.416Z,2.08
2022-08-01T01:08:10.820Z,2.72
2022-08-01T01:10:45.221Z,2.80
2022-08-01T01:13:17.984Z,2.28
2022-08-01T01:15:49.840Z,2.23
2022-08-01T01:18:24.379Z,2.28
2022-08-01T01:21:00.009Z,2.03
2022-08-01T01:23:48.152Z,2.35
2022-08-01T01:26:28.284Z,2.17
2022-08-01T01:29:03.816Z,1.85
2022-08-01T01:31:34.921Z,2.45
2022-08-01T01:34:06.654Z,2.20
2022-08-01T01:36:35.961Z,2.08
2022-08-01T01:39:04.057Z,2.30
2022-08-01T01:41:33.278Z,2.47
2022-08-01T01:44:03.958Z,2.65
2022-08-01T01:46:34.088Z,2.08
2022-08-01T01:49:03.410Z,2.15
2022-08-01T01:51:32.232Z,2.45
2022-08-01T01:54:01.490Z,2.90
2022-08-01T01:56:31.971Z,2.63
2022-08-01T01:59:04.573Z,2.92
2022-08-01T02:01:57.999Z,1.77
2022-08-01T02:04:25.561Z,1.98
2022-08-01T02:06:55.009Z,1.70
2022-08-01T02:09:23.986Z,2.05
2022-08-01T02:12:08.110Z,1.83
2022-08-01T02:14:41.106Z,1.90
2022-08-01T02:17:11.949Z,1.70
2022-08-01T02:19:41.073Z,1.52
2022-08-01T02:22:13.107Z,1.40
2022-08-01T02:24:46.766Z,1.33
2022-08-01T02:27:19.093Z,1.80
2022-08-01T02:29:54.418Z,1.92
2022-08-01T02:32:30.115Z,2.28
2022-08-01T02:34:59.777Z,2.47
2022-08-01T02:37:30.727Z,3.05
2022-08-01T02:39:58.903Z,2.72
2022-08-01T02:42:28.606Z,4.03
2022-08-01T02:44:59.442Z,2.58
2022-08-01T02:47:29.787Z,3.15
2022-08-01T02:49:58.269Z,3.38
2022-08-01T02:52:28.499Z,2.70
2022-08-01T02:54:59.872Z,3.00
2022-08-01T02:57:39.488Z,2.97
2022-08-01T03:00:24.700Z,4.00
2022-08-01T03:05:27.859Z,2.90
2022-08-01T03:08:02.585Z,2.80
2022-08-01T03:10:33.424Z,3.70
2022-08-01T03:13:03.574Z,3.17
2022-08-01T03:15:35.833Z,3.35
2022-08-01T03:18:07.149Z,3.10
2022-08-01T03:20:36.157Z,3.85
2022-08-01T03:23:07.667Z,3.33
2022-08-01T03:25:38.604Z,2.60
2022-08-01T03:28:08.877Z,2.80
2022-08-01T03:30:40.092Z,2.25
2022-08-01T03:33:08.284Z,2.13
2022-08-01T03:35:39.701Z,2.95
2022-08-01T03:38:15.822Z,2.83
2022-08-01T03:40:49.820Z,2.58
2022-08-01T03:45:52.664Z,2.58
2022-08-01T03:50:52.374Z,3.15
2022-08-01T03:53:24.263Z,2.40
2022-08-01T03:55:53.945Z,2.40
2022-08-01T03:58:23.436Z,2.60
2022-08-01T04:00:53.478Z,2.90
2022-08-01T04:03:21.961Z,2.65
2022-08-01T04:05:49.987Z,2.30
2022-08-01T04:08:18.106Z,2.35
2022-08-01T04:10:46.079Z,2.83
2022-08-01T04:13:14.717Z,2.83
2022-08-01T04:15:42.717Z,2.65
2022-08-01T04:18:12.085Z,2.40
2022-08-01T04:20:40.037Z,2.40
2022-08-01T04:23:10.107Z,2.55
2022-08-01T04:25:40.883Z,2.50
2022-08-01T04:28:17.249Z,2.40
2022-08-01T04:30:48.304Z,2.38
2022-08-01T04:33:20.842Z,3.20
2022-08-01T04:36:01.665Z,3.20
2022-08-01T04:38:37.668Z,2.88
2022-08-01T04:43:38.211Z,2.30
2022-08-01T04:46:07.778Z,2.75
2022-08-01T04:48:39.933Z,2.35
2022-08-01T04:51:14.677Z,3.78
2022-08-01T04:53:43.429Z,2.80
2022-08-01T04:56:14.065Z,2.65
2022-08-01T04:58:42.962Z,2.63
2022-08-01T05:01:11.864Z,2.30
2022-08-01T05:03:41.330Z,2.67
2022-08-01T05:06:09.382Z,3.03
2022-08-01T05:08:37.978Z,2.70
2022-08-01T05:11:06.379Z,3.10
2022-08-01T05:13:34.286Z,3.28
2022-08-01T05:16:04.678Z,2.58
2022-08-01T05:18:32.784Z,3.03
2022-08-01T05:21:03.037Z,3.10
2022-08-01T05:23:41.758Z,2.92
2022-08-01T05:26:10.896Z,3.60
2022-08-01T05:28:38.919Z,3.30
2022-08-01T05:31:06.844Z,3.33
2022-08-01T05:33:34.768Z,3.72
2022-08-01T05:36:04.005Z,5.30
2022-08-01T05:38:31.976Z,3.42
2022-08-01T05:41:00.080Z,3.38
2022-08-01T05:43:29.058Z,4.07
2022-08-01T05:45:57.610Z,3.35
2022-08-01T05:48:25.600Z,3.75
2022-08-01T05:50:58.241Z,2.88
2022-08-01T05:53:28.409Z,3.30
2022-08-01T05:55:56.630Z,3.22
2022-08-01T05:58:25.141Z,2.90
2022-08-01T06:00:53.086Z,3.08
2022-08-01T06:03:21.204Z,4.15
2022-08-01T06:05:49.232Z,3.17
2022-08-01T06:08:20.401Z,2.78
2022-08-01T06:10:51.169Z,3.10
2022-08-01T06:13:22.110Z,3.28
2022-08-01T06:15:50.770Z,3.22
2022-08-01T06:18:21.278Z,2.88
2022-08-01T06:20:51.592Z,3.40
2022-08-01T06:23:32.006Z,3.03
2022-08-01T06:26:04.770Z,3.50
2022-08-01T06:28:35.074Z,3.60
2022-08-01T06:31:07.591Z,2.95
2022-08-01T06:33:38.810Z,3.37
2022-08-01T06:36:08.971Z,2.45
2022-08-01T06:38:39.017Z,2.67
2022-08-01T06:41:10.761Z,3.45
2022-08-01T06:43:40.431Z,2.90
2022-08-01T06:46:11.152Z,2.85
2022-08-01T06:48:41.931Z,2.47
2022-08-01T06:51:15.425Z,4.03
2022-08-01T06:53:46.372Z,2.22
2022-08-01T06:56:18.687Z,2.70
2022-08-01T06:58:49.362Z,3.25
2022-08-01T07:01:20.913Z,2.50
2022-08-01T07:03:54.420Z,2.80
2022-08-01T07:06:26.760Z,2.55
2022-08-01T07:09:02.818Z,2.70
2022-08-01T07:11:42.623Z,2.70
2022-08-01T07:14:12.109Z,2.78
2022-08-01T07:16:42.626Z,2.60
2022-08-01T07:19:14.600Z,2.30
2022-08-01T07:21:45.350Z,2.75
2022-08-01T07:24:19.647Z,3.42
2022-08-01T07:26:55.999Z,2.42
2022-08-01T07:29:27.779Z,2.65
2022-08-01T07:32:00.023Z,3.10
2022-08-01T07:34:29.659Z,2.55
2022-08-01T07:36:59.159Z,2.67
2022-08-01T07:39:28.767Z,3.50
2022-08-01T07:42:07.349Z,3.95
2022-08-01T07:44:37.851Z,3.17
2022-08-01T07:47:08.499Z,2.83
2022-08-01T07:49:40.733Z,2.42
2022-08-01T07:52:10.723Z,2.33
2022-08-01T07:54:41.208Z,2.70
2022-08-01T07:57:12.364Z,2.97
2022-08-01T07:59:42.586Z,2.80
2022-08-01T08:02:13.258Z,3.03
2022-08-01T08:04:48.661Z,2.72
2022-08-01T08:07:18.692Z,2.42
2022-08-01T08:09:57.639Z,2.97
2022-08-01T08:12:39.776Z,1.70
2022-08-01T08:15:10.812Z,2.55
2022-08-01T08:17:41.198Z,4.57
2022-08-01T08:20:12.832Z,2.65
2022-08-01T08:22:43.576Z,3.58
2022-08-01T08:25:13.286Z,3.10
2022-08-01T08:27:45.661Z,2.67
2022-08-01T08:30:18.231Z,3.05
2022-08-01T08:32:48.988Z,1.85
2022-08-01T08:35:23.166Z,2.20
2022-08-01T08:38:10.632Z,2.22
2022-08-01T08:40:42.836Z,3.30
2022-08-01T08:43:18.137Z,4.05
2022-08-01T08:45:58.842Z,2.63
2022-08-01T08:48:35.861Z,3.58
2022-08-01T08:51:09.784Z,2.17
2022-08-01T08:53:45.222Z,2.33
2022-08-01T08:56:16.658Z,2.15
2022-08-01T08:58:50.137Z,2.70
2022-08-01T09:03:55.230Z,1.90
2022-08-01T09:06:26.303Z,2.00
2022-08-01T09:08:59.411Z,2.83
2022-08-01T09:11:31.485Z,2.08
2022-08-01T09:14:10.230Z,2.20
2022-08-01T09:16:48.304Z,2.72
2022-08-01T09:19:39.614Z,3.95
2022-08-01T09:22:15.279Z,2.93
2022-08-01T09:25:00.601Z,2.15
2022-08-01T09:27:30.524Z,2.05
2022-08-01T09:30:13.799Z,2.40
2022-08-01T09:33:11.168Z,1.90
2022-08-01T09:35:59.316Z,1.88
2022-08-01T09:38:30.213Z,1.70
2022-08-01T09:41:02.735Z,2.10
2022-08-01T09:43:34.520Z,2.35
2022-08-01T09:46:12.873Z,2.83
2022-08-01T09:48:59.243Z,2.15
2022-08-01T09:51:58.949Z,2.35
2022-08-01T09:54:37.630Z,3.60
2022-08-01T09:57:16.575Z,2.95
2022-08-01T09:59:58.265Z,2.35
2022-08-01T10:02:36.725Z,2.53
2022-08-01T10:05:09.601Z,2.17
2022-08-01T10:07:59.290Z,2.15
2022-08-01T10:10:31.758Z,2.35
2022-08-01T10:13:04.542Z,2.90
2022-08-01T10:15:36.904Z,1.63
2022-08-01T10:18:16.346Z,3.08
2022-08-01T10:20:50.565Z,3.10
2022-08-01T10:23:22.817Z,2.30
2022-08-01T10:26:10.057Z,1.90
2022-08-01T10:28:41.983Z,1.75
2022-08-01T10:31:13.152Z,2.50
2022-08-01T10:33:51.575Z,2.17
2022-08-01T10:36:25.403Z,2.33
2022-08-01T10:38:55.807Z,1.98
2022-08-01T10:41:24.352Z,2.80
2022-08-01T10:43:54.021Z,1.95
2022-08-01T10:46:23.190Z,1.88
2022-08-01T10:48:58.798Z,2.08
2022-08-01T10:51:52.275Z,1.83
2022-08-01T10:54:22.216Z,1.13
2022-08-01T10:56:58.256Z,1.90
2022-08-01T10:59:50.651Z,5.43
2022-08-01T11:02:32.976Z,1.83
2022-08-01T11:05:10.907Z,1.85
2022-08-01T11:07:56.838Z,2.50
2022-08-01T11:10:36.961Z,2.42
2022-08-01T11:13:09.500Z,4.13
2022-08-01T11:15:50.214Z,2.47
2022-08-01T11:18:47.607Z,2.78
2022-08-01T11:21:58.666Z,4.25
2022-08-01T11:24:15.595Z,2.50
2022-08-01T11:27:18.067Z,1.70
2022-08-01T11:30:26.593Z,2.05
2022-08-01T11:33:12.226Z,1.63
2022-08-01T11:36:00.752Z,2.00
2022-08-01T11:38:31.713Z,1.92
2022-08-01T11:41:12.526Z,1.77
2022-08-01T11:43:59.273Z,1.63
2022-08-01T11:46:55.316Z,1.42
2022-08-01T11:49:29.636Z,1.80
2022-08-01T11:52:00.099Z,1.67
2022-08-01T11:54:35.044Z,1.70
2022-08-01T11:57:09.138Z,1.75
2022-08-01T12:00:02.440Z,1.50
2022-08-01T12:02:45.381Z,1.58
2022-08-01T12:05:24.570Z,1.50
2022-08-01T12:07:56.518Z,1.85
2022-08-01T12:10:47.049Z,1.67
2022-08-01T12:13:19.214Z,1.50
2022-08-01T12:15:56.491Z,1.60
2022-08-01T12:18:26.518Z,4.18
2022-08-01T12:21:06.011Z,4.53
2022-08-01T12:23:35.538Z,2.45
2022-08-01T12:26:06.728Z,3.20
2022-08-01T12:28:41.852Z,1.77
2022-08-01T12:31:12.756Z,1.80
2022-08-01T12:33:43.310Z,1.70
2022-08-01T12:36:15.837Z,2.67
2022-08-01T12:38:47.998Z,1.17
2022-08-01T12:41:20.344Z,2.05
2022-08-01T12:43:52.259Z,1.80
2022-08-01T12:46:23.306Z,1.80
2022-08-01T12:48:54.171Z,1.63
2022-08-01T12:51:24.829Z,1.60
2022-08-01T12:53:57.090Z,1.80
2022-08-01T12:56:35.949Z,2.05
2022-08-01T12:59:54.435Z,1.83
2022-08-01T13:02:35.133Z,1.50
2022-08-01T13:05:08.108Z,1.70
2022-08-01T13:07:45.711Z,1.35
2022-08-01T13:10:18.457Z,1.80
2022-08-01T13:12:56.721Z,1.30
2022-08-01T13:15:32.943Z,1.75
2022-08-01T13:18:28.928Z,1.30
2022-08-01T13:21:19.189Z,1.70
2022-08-01T13:24:08.649Z,1.63
2022-08-01T13:26:47.843Z,1.40
2022-08-01T13:29:22.107Z,1.42
2022-08-01T13:31:53.798Z,1.63
2022-08-01T13:34:34.342Z,1.70
2022-08-01T13:37:06.123Z,1.67
2022-08-01T13:39:46.592Z,1.70
2022-08-01T13:42:19.446Z,1.73
2022-08-01T13:44:54.203Z,2.15
2022-08-01T13:47:31.398Z,1.38
2022-08-01T13:50:04.268Z,2.83
2022-08-01T13:52:35.109Z,5.50
2022-08-01T13:55:10.954Z,1.98
2022-08-01T13:57:41.233Z,1.77
2022-08-01T14:00:15.643Z,3.10
2022-08-01T14:02:46.777Z,1.70
2022-08-01T14:05:17.991Z,4.03
2022-08-01T14:07:49.001Z,1.90
2022-08-01T14:10:21.017Z,1.88
2022-08-01T14:12:53.547Z,1.75
2022-08-01T14:15:37.579Z,2.17
2022-08-01T14:18:11.334Z,2.30
2022-08-01T14:20:47.107Z,4.90
2022-08-01T14:23:21.379Z,1.60
2022-08-01T14:26:01.668Z,3.13
2022-08-01T14:28:36.198Z,3.17
2022-08-01T14:31:10.017Z,2.90
2022-08-01T14:33:40.944Z,3.28
2022-08-01T14:36:29.989Z,1.95
2022-08-01T14:39:14.975Z,2.05
2022-08-01T14:41:46.605Z,8.38
2022-08-01T14:44:19.822Z,7.72
2022-08-01T14:46:57.936Z,2.20
2022-08-01T14:49:30.489Z,2.40
2022-08-01T14:52:01.128Z,2.30
2022-08-01T14:54:32.250Z,2.70
2022-08-01T14:57:02.660Z,1.80
2022-08-01T14:59:33.446Z,1.75
2022-08-01T15:02:05.320Z,2.50
2022-08-01T15:04:39.306Z,1.70
2022-08-01T15:07:10.116Z,1.77
2022-08-01T15:09:46.334Z,1.35
2022-08-01T15:12:17.037Z,1.63
2022-08-01T15:14:52.158Z,2.00
2022-08-01T15:17:26.155Z,2.65
2022-08-01T15:22:28.896Z,1.70
2022-08-01T15:25:02.700Z,1.42
2022-08-01T15:27:33.971Z,1.55
2022-08-01T15:30:08.268Z,1.60
2022-08-01T15:32:39.557Z,1.35
2022-08-01T15:35:11.235Z,1.40
2022-08-01T15:37:43.077Z,1.45
2022-08-01T15:40:14.652Z,1.20
2022-08-01T15:42:44.237Z,1.50
2022-08-01T15:45:44.617Z,1.65
2022-08-01T15:48:08.612Z,8.63
2022-08-01T15:50:38.805Z,4.18
2022-08-01T15:53:09.103Z,2.03
2022-08-01T15:55:38.402Z,1.48
2022-08-01T15:58:12.257Z,2.00
2022-08-01T16:00:41.064Z,2.13
2022-08-01T16:03:11.797Z,2.08
2022-08-01T16:05:44.253Z,1.52
2022-08-01T16:08:14.742Z,2.50
2022-08-01T16:10:44.995Z,1.70
2022-08-01T16:13:16.755Z,1.70
2022-08-01T16:15:45.961Z,3.63
2022-08-01T16:18:18.209Z,2.60
2022-08-01T16:20:49.145Z,2.13
2022-08-01T16:23:21.734Z,1.75
2022-08-01T16:25:50.348Z,2.00
2022-08-01T16:28:18.556Z,1.58
2022-08-01T16:30:54.221Z,1.05
2022-08-01T16:33:45.961Z,1.42
2022-08-01T16:36:23.316Z,1.25
2022-08-01T16:38:53.247Z,2.75
2022-08-01T16:41:21.807Z,1.70
2022-08-01T16:43:53.907Z,1.20
2022-08-01T16:46:25.062Z,1.23
2022-08-01T16:48:55.721Z,1.40
2022-08-01T16:51:24.718Z,1.67
2022-08-01T16:53:52.913Z,1.65
2022-08-01T16:56:21.501Z,1.25
2022-08-01T16:58:52.908Z,1.70
2022-08-01T17:02:03.312Z,8.50
2022-08-01T17:04:10.933Z,3.90
2022-08-01T17:06:39.198Z,2.30
2022-08-01T17:09:07.530Z,2.08
2022-08-01T17:11:35.993Z,1.15
2022-08-01T17:14:04.102Z,1.55
2022-08-01T17:16:32.500Z,2.35
2022-08-01T17:19:00.470Z,3.40
2022-08-01T17:21:30.050Z,2.70
2022-08-01T17:23:58.123Z,2.65
2022-08-01T17:26:26.642Z,1.67
2022-08-01T17:28:54.869Z,1.95
2022-08-01T17:31:23.112Z,1.70
2022-08-01T17:33:54.757Z,1.77
2022-08-01T17:36:23.571Z,2.00
2022-08-01T17:38:53.286Z,2.08
2022-08-01T17:41:21.552Z,1.63
2022-08-01T17:43:49.619Z,1.85
2022-08-01T17:46:18.173Z,1.05
2022-08-01T17:48:46.786Z,1.30
2022-08-01T17:51:19.358Z,1.00
2022-08-01T17:53:56.743Z,1.50
2022-08-01T17:56:28.412Z,1.20
2022-08-01T17:58:57.355Z,1.95
2022-08-01T18:01:26.484Z,1.67
2022-08-01T18:03:55.668Z,1.70
2022-08-01T18:06:27.318Z,2.20
2022-08-01T18:08:59.375Z,1.63
2022-08-01T18:11:29.239Z,1.77
2022-08-01T18:14:05.601Z,1.52
2022-08-01T18:16:33.643Z,2.42
2022-08-01T18:19:01.735Z,2.03
2022-08-01T18:21:32.110Z,1.92
2022-08-01T18:24:01.452Z,2.08
2022-08-01T18:26:30.770Z,1.88
2022-08-01T18:28:58.833Z,4.38
2022-08-01T18:31:26.876Z,13.88
2022-08-01T18:33:55.014Z,12.32
2022-08-01T18:36:32.811Z,11.27
2022-08-01T18:39:10.349Z,7.72
2022-08-01T18:41:40.848Z,3.88
2022-08-01T18:44:09.377Z,4.38
2022-08-01T18:46:39.141Z,3.65
2022-08-01T18:49:09.790Z,3.60
2022-08-01T18:51:43.920Z,3.47
2022-08-01T18:54:13.404Z,2.67
2022-08-01T18:56:43.563Z,3.17
2022-08-01T18:59:11.637Z,2.58
2022-08-01T19:01:40.140Z,2.90
2022-08-01T19:04:08.518Z,2.92
2022-08-01T19:06:37.014Z,6.72
2022-08-01T19:09:05.672Z,10.15
2022-08-01T19:11:35.202Z,8.40
2022-08-01T19:14:04.647Z,6.70
2022-08-01T19:16:33.236Z,5.57
2022-08-01T19:19:04.782Z,3.30
2022-08-01T19:21:33.197Z,2.00
2022-08-01T19:24:23.453Z,2.00
2022-08-01T19:26:57.791Z,3.60
2022-08-01T19:29:35.570Z,25.58
2022-08-01T19:32:10.437Z,7.88
2022-08-01T19:39:47.437Z,3.05
2022-08-01T19:42:17.448Z,2.10
2022-08-01T19:44:52.256Z,2.05
2022-08-01T19:48:13.894Z,2.20
2022-08-01T19:50:53.046Z,2.17
2022-08-01T19:53:28.729Z,2.05
2022-08-01T19:55:59.897Z,6.10
2022-08-01T19:58:29.695Z,20.08
2022-08-01T20:00:59.083Z,30.17
2022-08-01T20:03:32.380Z,41.20
2022-08-01T20:06:02.190Z,21.95
2022-08-01T20:08:36.397Z,5.72
2022-08-01T20:11:13.337Z,6.18
2022-08-01T20:13:43.171Z,4.57
2022-08-01T20:16:13.583Z,3.33
2022-08-01T20:18:44.029Z,2.95
2022-08-01T20:21:15.728Z,2.58
2022-08-01T20:23:46.519Z,1.77
2022-08-01T20:26:18.484Z,1.67
2022-08-01T20:28:51.051Z,1.90
2022-08-01T20:31:24.727Z,2.22
2022-08-01T20:33:57.290Z,2.20
2022-08-01T20:36:28.321Z,2.67
2022-08-01T20:39:00.988Z,2.35
2022-08-01T20:41:31.615Z,2.28
2022-08-01T20:44:01.226Z,1.75
2022-08-01T20:46:35.182Z,2.10
2022-08-01T20:49:09.359Z,1.60
2022-08-01T20:51:42.660Z,2.00
2022-08-01T20:54:14.177Z,2.20
2022-08-01T20:56:52.393Z,2.25
2022-08-01T20:59:39.501Z,1.90
2022-08-01T21:03:02.480Z,1.63
2022-08-01T21:05:55.989Z,1.90
2022-08-01T21:08:37.385Z,1.83
2022-08-01T21:11:07.448Z,2.20
2022-08-01T21:13:43.255Z,1.42
2022-08-01T21:16:24.366Z,12.55
2022-08-01T21:21:56.867Z,15.23
2022-08-01T21:24:31.120Z,9.88
2022-08-01T21:27:02.412Z,6.18
2022-08-01T21:29:36.633Z,3.92
2022-08-01T21:32:16.103Z,6.88
2022-08-01T21:34:52.537Z,25.42
2022-08-01T21:37:24.154Z,24.58
2022-08-01T21:39:58.760Z,17.63
2022-08-01T21:42:29.480Z,22.83
2022-08-01T21:45:05.885Z,50.83
2022-08-01T21:47:37.724Z,59.15
2022-08-01T21:50:10.771Z,46.95
2022-08-01T21:52:45.387Z,3.80
2022-08-01T21:55:35.335Z,3.20
2022-08-01T21:58:21.300Z,3.15
2022-08-01T22:00:57.537Z,3.60
2022-08-01T22:03:35.674Z,3.20
2022-08-01T22:06:23.622Z,2.95
2022-08-01T22:08:54.687Z,3.20
2022-08-01T22:11:28.310Z,3.28
2022-08-01T22:14:03.785Z,3.65
2022-08-01T22:16:41.293Z,3.17
2022-08-01T22:19:32.397Z,3.58
2022-08-01T22:22:04.620Z,2.97
2022-08-01T22:24:53.774Z,3.47
2022-08-01T22:28:05.618Z,3.13
2022-08-01T22:30:15.672Z,3.15
2022-08-01T22:33:15.101Z,3.10
2022-08-01T22:35:36.451Z,3.50
2022-08-01T22:40:44.097Z,3.33
2022-08-01T22:43:30.921Z,3.55
2022-08-01T22:46:22.394Z,3.50
2022-08-01T22:48:53.949Z,3.20
2022-08-01T22:51:35.757Z,3.83
2022-08-01T22:54:12.793Z,4.80
2022-08-01T22:56:45.684Z,4.00
2022-08-01T22:59:16.795Z,4.57
2022-08-01T23:01:50.560Z,4.35
2022-08-01T23:04:29.773Z,3.28
2022-08-01T23:07:05.646Z,3.90
2022-08-01T23:09:53.785Z,3.47
2022-08-01T23:12:28.834Z,3.55
2022-08-01T23:14:59.149Z,3.47
2022-08-01T23:17:29.701Z,3.40
2022-08-01T23:20:02.261Z,3.53
2022-08-01T23:22:33.702Z,3.75
2022-08-01T23:25:06.962Z,2.90
2022-08-01T23:27:55.738Z,3.25
2022-08-01T23:30:29.358Z,3.13
2022-08-01T23:33:02.842Z,3.63
2022-08-01T23:35:31.959Z,2.80
2022-08-01T23:38:03.674Z,2.50
2022-08-01T23:40:36.927Z,3.20
2022-08-01T23:43:16.577Z,3.15
2022-08-01T23:46:03.291Z,2.35
2022-08-01T23:48:34.920Z,3.17
2022-08-01T23:51:04.285Z,2.60
2022-08-01T23:53:38.248Z,3.20
2022-08-01T23:56:08.404Z,2.67
2022-08-01T23:58:37.089Z,3.13
